• Join FlightAware (Why Join?)
  • Login
  • US Flag 
Rudolph Flight #1: Arrived! 
02:39AM EST


 

Airport Tracker/Info


-or-


 

Live Flight TrackerFlight Track Log ✈ N1944E ✈ 17-Jan-2014 ✈ KSDY - KBIL

Flight Track Log - Related Links

Times and Time Zones

All times are in EST time to prevent confusion due to time zone crossing. See the N1944E flight status page for this flight to view local times or setup timezone preferences in your user account.

Time Position Orientation Groundspeed Altitude Reporting Facility
EST Latitude Longitude Course Direction KTS MPH feet Rate Location/Type
07:26PM 47.6258 -104.3631 228° Southwest 133 153 5,800  Level Salt Lake Center
07:27PM 47.6114 -104.4142 247° West 134 154 6,600 900 Climbing Salt Lake Center
07:28PM 47.5956 -104.4747 249° West 133 153 7,700 960 Climbing Salt Lake Center
07:29PM 47.5778 -104.5214 241° Southwest 132 152 8,600 780 Climbing Salt Lake Center
07:30PM 47.5592 -104.5667 239° Southwest 130 150 9,400 720 Climbing Salt Lake Center
07:31PM 47.5492 -104.5811 228° Southwest  Level Estimated
07:31PM 47.5392 -104.6111 236° Southwest 130 150 10,100  Level Salt Lake Center
07:32PM 47.5189 -104.6569 237° Southwest 131 151 10,900 720 Climbing Salt Lake Center
07:33PM 47.4969 -104.7044 236° Southwest 135 155 11,700 840 Climbing Salt Lake Center
07:34PM 47.4739 -104.7603 239° Southwest 135 155 12,700 780 Climbing Salt Lake Center
07:35PM 47.4542 -104.8092 239° Southwest 136 157 13,400 660 Climbing Salt Lake Center
07:36PM 47.4331 -104.8636 240° Southwest 143 165 14,100 300 Climbing Salt Lake Center
07:37PM 47.4097 -104.9281 242° Southwest 159 183 14,100  Level Salt Lake Center
07:38PM 47.3811 -104.9969 238° Southwest 180 207 14,100  Level Salt Lake Center
07:39PM 47.3544 -105.0608 238° Southwest 185 213 14,100  Level Salt Lake Center
07:40PM 47.3217 -105.1372 238° Southwest 185 213 14,100  Level Salt Lake Center
07:41PM 47.2939 -105.1997 237° Southwest 184 212 14,100  Level Salt Lake Center
07:42PM 47.2678 -105.2606 238° Southwest 181 208 14,100  Level Salt Lake Center
07:43PM 47.2431 -105.3214 239° Southwest 177 204 14,100  Level Salt Lake Center
07:44PM 47.2183 -105.3828 239° Southwest 176 203 14,100  Level Salt Lake Center
07:45PM 47.1922 -105.4447 238° Southwest 177 204 14,100  Level Salt Lake Center
07:46PM 47.1606 -105.5183 238° Southwest 178 205 14,100  Level Salt Lake Center
07:47PM 47.1336 -105.5836 239° Southwest 181 208 14,100  Level Salt Lake Center
07:48PM 47.1067 -105.6461 238° Southwest 182 209 14,100 -60 Level Salt Lake Center
07:49PM 47.0783 -105.7114 238° Southwest 186 214 14,000 -60 Descending Salt Lake Center
07:50PM 47.0506 -105.7764 238° Southwest 188 216 14,000  Level Salt Lake Center
07:51PM 47.0239 -105.8386 238° Southwest 185 213 14,000  Level Salt Lake Center
07:52PM 46.9978 -105.9011 239° Southwest 182 209 14,000  Level Salt Lake Center
07:53PM 46.9642 -105.9750 236° Southwest 182 209 14,000  Level Salt Lake Center
07:54PM 46.9375 -106.0375 238° Southwest 182 209 14,000  Level Salt Lake Center
07:55PM 46.9108 -106.1028 239° Southwest 185 213 14,000  Level Salt Lake Center
07:56PM 46.8836 -106.1661 238° Southwest 185 213 14,000  Level Salt Lake Center
07:58PM 46.8550 -106.2283 236° Southwest 184 212 14,000  Level Salt Lake Center
07:59PM 46.8267 -106.2967 239° Southwest 190 219 14,000  Level Salt Lake Center
08:00PM 46.7933 -106.3739 238° Southwest 190 219 14,000  Level Salt Lake Center
08:01PM 46.7658 -106.4394 239° Southwest 189 217 14,000  Level Salt Lake Center
08:02PM 46.7369 -106.5058 238° Southwest 192 221 14,000  Level Salt Lake Center
08:03PM 46.7072 -106.5683 235° Southwest 190 219 14,000  Level Salt Lake Center
08:04PM 46.6789 -106.6317 237° Southwest 189 217 14,000  Level Salt Lake Center
08:05PM 46.6519 -106.6925 237° Southwest 185 213 14,000  Level Salt Lake Center
08:06PM 46.6211 -106.7708 240° Southwest 185 213 14,000  Level Salt Lake Center
08:07PM 46.5933 -106.8322 237° Southwest 187 215 14,000  Level Salt Lake Center
08:08PM 46.5611 -106.9008 236° Southwest 188 216 14,000 -60 Level Salt Lake Center
08:09PM 46.5356 -106.9575 237° Southwest 183 211 13,900 -60 Descending Salt Lake Center
08:10PM 46.5083 -107.0225 239° Southwest 187 215 13,900  Level Salt Lake Center
08:11PM 46.4742 -107.0983 237° Southwest 188 216 14,000  Climbing Salt Lake Center
08:12PM 46.4475 -107.1642 240° Southwest 189 217 14,000  Level Salt Lake Center
08:13PM 46.4172 -107.2275 235° Southwest 187 215 14,000  Level Salt Lake Center
08:14PM 46.3908 -107.2858 237° Southwest 186 214 14,000  Level Salt Lake Center
08:15PM 46.3625 -107.3508 238° Southwest 188 216 14,000  Level Salt Lake Center
08:16PM 46.3336 -107.4114 235° Southwest 185 213 14,000  Level Salt Lake Center
08:17PM 46.2992 -107.4881 237° Southwest 186 214 14,000  Level Salt Lake Center
08:18PM 46.2714 -107.5486 236° Southwest 185 213 14,000  Level Salt Lake Center
08:19PM 46.2400 -107.6156 236° Southwest 189 217 14,000  Level Salt Lake Center
08:20PM 46.2125 -107.6758 237° Southwest 184 212 14,000  Level Salt Lake Center
08:21PM 46.1836 -107.7436 238° Southwest 186 214 14,000 -300 Level Salt Lake Center
08:22PM 46.1533 -107.8081 236° Southwest 194 223 13,500 -660 Descending Salt Lake Center
08:23PM 46.1075 -107.8706 223° Southwest 208 239 12,700 -900 Descending Salt Lake Center
08:24PM 46.0639 -107.9319 224° Southwest 218 251 11,700 -1,020 Descending Salt Lake Center
08:25PM 46.0167 -107.9989 225° Southwest 222 255 10,700 -960 Descending Salt Lake Center
08:26PM 45.9747 -108.0617 226° Southwest 221 254 9,800 -840 Descending Salt Lake Center
08:27PM 45.9333 -108.1267 228° Southwest 209 241 9,000 -840 Descending Salt Lake Center
08:28PM 45.9000 -108.1842 230° Southwest 192 221 8,100 -900 Descending Salt Lake Center
08:29PM 45.8683 -108.2458 234° Southwest 191 220 7,200 -900 Descending Salt Lake Center
08:30PM 45.8422 -108.3100 240° Southwest 176 203 6,300 -840 Descending Salt Lake Center
08:32PM 45.8194 -108.3678 241° Southwest 169 194 5,500 -540 Descending Salt Lake Center
08:33PM 45.8000 -108.4289 245° Southwest 159 183 5,200 -600 Descending Salt Lake Center
08:34PM 45.7875 -108.4661 244° Southwest 111 128 4,300 -780 Descending Salt Lake Center
08:35PM 45.7989 -108.5053 293° West 100 115 3,700 -600 Descending Salt Lake Center
08:37PM 45.8000 -108.5333 240° Southwest  Level FlightAware Approximate
08:44PM 45.8077 -108.5429 240° Southwest  Level Estimated